Time;durP1;ratioP1;P1;durP2;ratioP2;P2;SDS_P1;SDS_P2;PMS_P1;PMS_P2;Temp;Humidity;BMP_temperature;BMP_pressure;BME280_temperature;BME280_humidity;BME280_pressure;Samples;Min_cycle;Max_cycle;Signal;HPM_P1;HPM_P2
2021/10/30 00:02:01;;;;;;;13.60;8.80;;;;;;;2.24;93.14;93837.81;5131217;27;20047;-82
2021/10/30 00:04:29;;;;;;;16.83;8.63;;;;;;;1.89;92.72;93786.94;5130925;27;20093;-82
2021/10/30 00:06:56;;;;;;;14.00;8.10;;;;;;;2.22;92.68;93839.72;5130065;27;20047;-81
2021/10/30 00:09:23;;;;;;;17.45;9.15;;;;;;;2.08;92.07;93841.00;5130716;27;20507;-81
2021/10/30 00:11:50;;;;;;;15.88;8.02;;;;;;;2.01;93.54;93835.69;5130341;27;20047;-81
2021/10/30 00:14:17;;;;;;;16.92;8.23;;;;;;;1.94;93.64;93835.44;5130477;27;20043;-81
2021/10/30 00:16:44;;;;;;;13.70;8.52;;;;;;;1.83;95.18;93826.31;5130500;27;20462;-81
2021/10/30 00:19:12;;;;;;;13.30;8.27;;;;;;;1.86;94.28;93836.13;5130490;27;20507;-81
2021/10/30 00:21:39;;;;;;;12.07;7.70;;;;;;;1.93;94.38;93845.72;5130316;27;20051;-81
2021/10/30 00:24:06;;;;;;;13.73;7.45;;;;;;;1.88;94.45;93841.06;5130174;27;20044;-80
2021/10/30 00:26:33;;;;;;;14.55;8.00;;;;;;;1.83;93.33;93838.16;5130231;27;20047;-81
2021/10/30 00:29:00;;;;;;;14.95;8.07;;;;;;;1.58;93.24;93804.94;5129897;27;20036;-80
2021/10/30 00:31:27;;;;;;;15.52;8.85;;;;;;;1.70;93.76;93828.34;5130343;27;20136;-82
2021/10/30 00:33:54;;;;;;;14.65;8.13;;;;;;;1.52;94.45;93815.63;5130246;27;20050;-81
2021/10/30 00:36:22;;;;;;;16.65;8.75;;;;;;;0.90;93.80;93718.19;5130321;27;20039;-83
2021/10/30 00:38:49;;;;;;;11.82;6.72;;;;;;;1.59;93.37;93829.31;5130140;27;20092;-83
2021/10/30 00:41:17;;;;;;;13.55;7.47;;;;;;;1.53;95.00;93828.13;5130443;28;20470;-83
2021/10/30 00:43:45;;;;;;;12.65;7.93;;;;;;;1.51;95.05;93814.03;5129901;28;20043;-82
2021/10/30 00:46:12;;;;;;;12.98;7.13;;;;;;;1.62;94.47;93820.66;5130538;28;20107;-81
2021/10/30 00:48:39;;;;;;;14.63;7.35;;;;;;;1.63;94.44;93820.53;5130444;28;20055;-82
2021/10/30 00:51:06;;;;;;;14.38;7.63;;;;;;;1.50;94.18;93797.22;5130253;28;20047;-82
2021/10/30 00:53:35;;;;;;;11.55;6.75;;;;;;;1.73;94.39;93820.47;5130109;28;20099;-81
2021/10/30 00:56:05;;;;;;;13.75;7.13;;;;;;;1.59;94.43;93796.41;5130344;28;20151;-81
2021/10/30 00:58:35;;;;;;;12.40;7.60;;;;;;;1.69;94.64;93822.50;5130541;28;20040;-81
2021/10/30 01:01:05;;;;;;;11.07;6.93;;;;;;;1.49;94.50;93801.53;5129931;28;20074;-81
2021/10/30 01:03:33;;;;;;;11.50;6.65;;;;;;;1.63;95.15;93818.00;5130080;28;20043;-81
2021/10/30 01:06:00;;;;;;;14.77;6.22;;;;;;;1.64;93.76;93823.84;5130467;28;20646;-81
2021/10/30 01:08:27;;;;;;;17.15;6.75;;;;;;;1.60;93.72;93819.06;5130111;28;20385;-81
2021/10/30 01:10:55;;;;;;;14.52;7.35;;;;;;;1.58;94.48;93836.13;5130090;28;20484;-81
2021/10/30 01:13:23;;;;;;;16.02;8.95;;;;;;;1.57;93.55;93823.63;5129861;28;20043;-81
2021/10/30 01:15:50;;;;;;;17.58;9.68;;;;;;;1.58;93.63;93817.59;5130385;28;20050;-81
2021/10/30 01:18:16;;;;;;;19.88;11.13;;;;;;;1.41;93.85;93822.47;5128941;27;20043;-81
2021/10/30 01:20:45;;;;;;;16.92;10.07;;;;;;;1.36;94.86;93818.72;5132773;27;20039;-80
2021/10/30 01:23:12;;;;;;;18.23;9.23;;;;;;;1.37;94.99;93822.84;5134079;27;20081;-81
2021/10/30 01:25:39;;;;;;;15.30;9.15;;;;;;;1.39;94.92;93831.13;5134154;27;20043;-80
2021/10/30 01:28:06;;;;;;;14.77;7.85;;;;;;;1.38;95.54;93825.25;5133591;27;20047;-80
2021/10/30 01:30:33;;;;;;;15.55;8.23;;;;;;;1.42;95.39;93828.31;5133781;27;20047;-81
2021/10/30 01:33:02;;;;;;;11.38;6.45;;;;;;;1.33;94.56;93818.09;5133505;27;20047;-81
2021/10/30 01:35:31;;;;;;;11.80;7.00;;;;;;;1.29;94.44;93823.56;5133733;27;20047;-81
2021/10/30 01:38:00;;;;;;;8.95;6.43;;;;;;;1.24;95.52;93821.44;5133467;27;20050;-82
2021/10/30 01:40:27;;;;;;;8.82;5.82;;;;;;;1.22;95.12;93832.63;5133433;27;20051;-82
2021/10/30 01:42:55;;;;;;;9.93;6.53;;;;;;;0.98;96.01;93803.50;5133672;27;20116;-82
2021/10/30 01:45:23;;;;;;;10.13;5.95;;;;;;;1.14;96.56;93833.28;5133605;27;20055;-82
2021/10/30 01:47:49;;;;;;;13.50;7.03;;;;;;;1.00;97.28;93809.22;5133785;27;20058;-81
2021/10/30 01:50:16;;;;;;;12.23;6.75;;;;;;;1.13;96.59;93829.19;5133367;27;20510;-81
2021/10/30 01:52:45;;;;;;;9.73;6.13;;;;;;;0.91;97.02;93799.00;5133476;27;20047;-81
2021/10/30 01:55:15;;;;;;;9.90;5.55;;;;;;;1.13;96.34;93830.00;5133313;27;20043;-81
2021/10/30 01:57:42;;;;;;;8.88;5.72;;;;;;;1.08;96.01;93833.84;5133193;27;20051;-81
2021/10/30 02:00:10;;;;;;;8.10;5.00;;;;;;;1.01;96.03;93834.38;5132592;27;20046;-80
2021/10/30 02:02:37;;;;;;;10.13;5.15;;;;;;;0.89;96.09;93823.59;5133418;27;20054;-81
2021/10/30 02:05:05;;;;;;;9.68;5.22;;;;;;;0.85;96.75;93824.84;5133049;27;20043;-81
2021/10/30 02:07:32;;;;;;;10.68;6.10;;;;;;;0.89;97.17;93821.09;5132686;27;20039;-81
2021/10/30 02:09:59;;;;;;;11.02;6.22;;;;;;;0.94;97.80;93830.81;5132763;27;20059;-81
2021/10/30 02:12:28;;;;;;;11.05;5.90;;;;;;;0.91;97.73;93828.53;5132991;27;20399;-80
2021/10/30 02:14:55;;;;;;;11.73;6.35;;;;;;;0.92;98.09;93827.59;5132862;27;20077;-81
2021/10/30 02:17:22;;;;;;;13.90;6.55;;;;;;;0.91;98.25;93828.53;5133026;27;20051;-81
2021/10/30 02:19:49;;;;;;;11.75;6.25;;;;;;;0.94;97.72;93823.22;5132879;27;20060;-81
2021/10/30 02:22:16;;;;;;;13.75;7.70;;;;;;;0.86;97.47;93818.84;5132833;27;20043;-81
2021/10/30 02:24:43;;;;;;;14.55;8.73;;;;;;;0.87;98.01;93824.69;5133061;27;20414;-82
2021/10/30 02:27:11;;;;;;;15.15;8.35;;;;;;;0.59;98.61;93784.91;5133107;27;20218;-81
2021/10/30 02:29:39;;;;;;;15.43;7.88;;;;;;;0.83;98.86;93829.22;5132815;27;20058;-81
2021/10/30 02:32:07;;;;;;;14.32;8.25;;;;;;;0.71;98.32;93822.69;5132252;27;20051;-81
2021/10/30 02:34:34;;;;;;;12.90;7.47;;;;;;;0.72;98.71;93827.63;5132393;27;20099;-81
2021/10/30 02:37:01;;;;;;;14.93;8.88;;;;;;;0.72;99.45;93826.81;5131466;27;20527;-81
2021/10/30 02:39:28;;;;;;;15.60;8.60;;;;;;;0.48;99.56;93787.56;5131718;27;20043;-80
2021/10/30 02:41:54;;;;;;;15.15;7.90;;;;;;;0.66;98.87;93818.84;5131524;27;20043;-80
2021/10/30 02:44:21;;;;;;;13.73;7.93;;;;;;;0.72;98.96;93831.88;5132129;27;20549;-81
2021/10/30 02:46:49;;;;;;;12.73;7.82;;;;;;;0.51;98.53;93785.56;5131997;27;20076;-80
2021/10/30 02:49:17;;;;;;;15.35;8.98;;;;;;;0.72;99.26;93824.28;5130835;27;21382;-80
2021/10/30 02:51:44;;;;;;;14.55;8.43;;;;;;;0.70;99.14;93821.09;5128548;27;20058;-79
2021/10/30 02:54:11;;;;;;;13.85;8.63;;;;;;;0.60;99.51;93816.84;5129757;27;20047;-80
2021/10/30 02:56:38;;;;;;;16.73;9.32;;;;;;;0.68;99.24;93826.28;5131237;27;20093;-80
2021/10/30 02:59:05;;;;;;;13.68;8.38;;;;;;;0.62;99.18;93821.78;5127850;27;20512;-80
2021/10/30 03:01:32;;;;;;;13.30;9.10;;;;;;;0.65;99.11;93822.31;5130344;27;20713;-80
2021/10/30 03:04:00;;;;;;;11.00;7.22;;;;;;;0.63;99.16;93815.78;5131615;27;20045;-80
2021/10/30 03:06:27;;;;;;;15.43;7.93;;;;;;;0.62;99.68;93804.06;5131865;27;20099;-80
2021/10/30 03:08:54;;;;;;;9.07;6.13;;;;;;;0.72;98.56;93824.28;5131602;27;20515;-82
2021/10/30 03:11:21;;;;;;;9.48;6.20;;;;;;;0.73;98.18;93818.28;5131513;27;20500;-82
2021/10/30 03:13:48;;;;;;;10.85;6.15;;;;;;;0.76;97.42;93813.78;5131477;27;20495;-82
2021/10/30 03:16:15;;;;;;;10.45;6.05;;;;;;;0.74;98.15;93819.91;5131785;27;20047;-81
2021/10/30 03:18:41;;;;;;;9.07;5.28;;;;;;;0.68;98.20;93808.59;5131676;27;20411;-81
2021/10/30 03:21:10;;;;;;;11.38;5.50;;;;;;;0.63;98.06;93809.00;5131424;27;20410;-81
2021/10/30 03:23:37;;;;;;;9.50;5.10;;;;;;;0.55;98.06;93810.59;5131639;27;20047;-80
2021/10/30 03:26:04;;;;;;;9.15;5.20;;;;;;;0.51;98.31;93805.03;5131441;27;20450;-81
2021/10/30 03:28:31;;;;;;;8.55;4.60;;;;;;;0.53;98.24;93813.25;5130727;27;20047;-81
2021/10/30 03:30:58;;;;;;;7.97;5.43;;;;;;;0.57;98.26;93816.31;5130911;27;20047;-81
2021/10/30 03:33:24;;;;;;;8.07;5.90;;;;;;;0.45;98.42;93798.75;5130929;27;20058;-81
2021/10/30 03:35:51;;;;;;;9.70;5.97;;;;;;;0.48;98.30;93807.81;5131137;27;20047;-83
2021/10/30 03:38:20;;;;;;;9.88;6.05;;;;;;;0.35;99.16;93808.88;5130823;27;20043;-83
2021/10/30 03:40:46;;;;;;;9.23;5.97;;;;;;;0.45;99.95;93813.09;5130824;27;20087;-83
2021/10/30 03:43:13;;;;;;;11.00;6.90;;;;;;;0.42;100.00;93809.16;5130454;27;20460;-82
2021/10/30 03:45:40;;;;;;;11.93;6.68;;;;;;;0.49;99.96;93820.31;5130752;27;20043;-82
2021/10/30 03:48:08;;;;;;;9.75;6.35;;;;;;;0.52;99.87;93820.03;5130773;27;20058;-81
2021/10/30 03:50:36;;;;;;;7.07;5.53;;;;;;;0.57;99.85;93818.84;5130766;27;20145;-83
2021/10/30 03:53:04;;;;;;;9.27;5.82;;;;;;;0.52;99.11;93811.66;5130949;27;20086;-83
2021/10/30 03:55:33;;;;;;;10.55;6.93;;;;;;;0.53;98.63;93806.50;5130304;27;20046;-82
2021/10/30 03:58:00;;;;;;;11.30;6.90;;;;;;;0.39;98.81;93797.56;5130007;27;20092;-83
2021/10/30 04:00:27;;;;;;;9.30;6.30;;;;;;;0.53;98.06;93811.53;5130010;27;20043;-81
2021/10/30 04:02:54;;;;;;;8.30;5.60;;;;;;;0.10;98.39;93800.84;5130609;27;20073;-82
2021/10/30 04:05:20;;;;;;;9.68;6.65;;;;;;;-0.05;100.00;93819.84;5130243;27;20058;-82
2021/10/30 04:07:47;;;;;;;9.70;6.72;;;;;;;-0.22;100.00;93779.13;5129936;27;20088;-82
2021/10/30 04:10:14;;;;;;;11.85;7.18;;;;;;;-0.05;100.00;93819.84;5130424;27;20051;-81
2021/10/30 04:12:43;;;;;;;13.52;6.72;;;;;;;-0.08;100.00;93793.13;5123456;27;20141;-82
2021/10/30 04:15:10;;;;;;;22.88;12.00;;;;;;;-0.08;100.00;93818.38;5126360;27;20070;-81
2021/10/30 04:17:37;;;;;;;25.80;14.07;;;;;;;-0.22;100.00;93821.25;5126351;27;20058;-81
2021/10/30 04:20:04;;;;;;;23.05;13.05;;;;;;;-0.13;100.00;93817.97;5126223;27;20047;-81
2021/10/30 04:22:31;;;;;;;25.75;13.40;;;;;;;-0.04;100.00;93809.59;5125801;27;20055;-81
2021/10/30 04:24:59;;;;;;;25.55;15.15;;;;;;;-0.54;100.00;93780.88;5126295;27;20435;-81
2021/10/30 04:27:26;;;;;;;24.60;14.23;;;;;;;-0.50;100.00;93773.06;5126158;27;20039;-82
2021/10/30 04:29:54;;;;;;;21.05;13.18;;;;;;;-0.17;100.00;93804.78;5126220;27;20046;-82
2021/10/30 04:32:21;;;;;;;22.92;13.77;;;;;;;-0.03;100.00;93813.72;5126008;27;20055;-82
2021/10/30 04:34:49;;;;;;;27.15;16.75;;;;;;;-0.44;100.00;93782.66;5125800;27;20055;-83
2021/10/30 04:37:16;;;;;;;27.67;15.18;;;;;;;-0.42;100.00;93801.78;5125502;27;20126;-83
2021/10/30 04:39:44;;;;;;;30.85;18.08;;;;;;;-0.29;100.00;93808.31;5125961;27;20368;-83
2021/10/30 04:42:11;;;;;;;36.00;20.98;;;;;;;-0.36;100.00;93797.16;5125584;28;20500;-83
2021/10/30 04:44:38;;;;;;;28.23;18.10;;;;;;;-0.29;100.00;93800.75;5125903;28;20107;-81
2021/10/30 04:47:07;;;;;;;32.88;20.77;;;;;;;-0.29;100.00;93805.81;5125540;28;20058;-81
2021/10/30 04:49:35;;;;;;;25.60;16.52;;;;;;;-0.45;100.00;93796.19;5125703;28;20478;-81
2021/10/30 04:52:02;;;;;;;33.25;20.48;;;;;;;-0.17;100.00;93809.84;5125537;28;20058;-81
2021/10/30 04:54:29;;;;;;;33.67;21.70;;;;;;;-0.22;100.00;93778.31;5128895;27;20040;-81
2021/10/30 04:56:56;;;;;;;31.63;19.75;;;;;;;-0.02;100.00;93809.47;5130463;27;20047;-81
2021/10/30 04:59:23;;;;;;;40.13;20.67;;;;;;;-0.05;100.00;93784.47;5129671;27;20043;-81
2021/10/30 05:01:50;;;;;;;35.53;21.17;;;;;;;-0.15;100.00;93777.69;5130027;27;20047;-81
2021/10/30 05:04:19;;;;;;;40.22;19.75;;;;;;;-0.20;100.00;93779.78;5129830;27;20043;-81
2021/10/30 05:06:45;;;;;;;28.33;17.08;;;;;;;-0.15;100.00;93789.50;5129724;27;20066;-82
2021/10/30 05:09:12;;;;;;;31.83;17.40;;;;;;;-0.04;100.00;93801.22;5129817;27;20558;-82
2021/10/30 05:11:39;;;;;;;25.45;16.50;;;;;;;-0.13;100.00;93807.84;5129584;27;20783;-82
2021/10/30 05:14:06;;;;;;;27.98;16.50;;;;;;;-0.12;100.00;93803.59;5129258;27;20526;-83
2021/10/30 05:16:33;;;;;;;28.13;16.30;;;;;;;-0.02;100.00;93805.22;5130300;27;20043;-83
2021/10/30 05:19:00;;;;;;;35.78;21.13;;;;;;;-0.22;100.00;93786.72;5129604;27;20047;-82
2021/10/30 05:21:28;;;;;;;33.10;18.58;;;;;;;-0.28;100.00;93745.09;5129812;27;20061;-82
2021/10/30 05:23:56;;;;;;;35.00;18.77;;;;;;;0.11;100.00;93805.00;5129469;27;20051;-82
2021/10/30 05:26:23;;;;;;;39.30;23.00;;;;;;;-0.12;100.00;93773.28;5129265;27;20047;-82
2021/10/30 05:28:50;;;;;;;39.47;24.35;;;;;;;0.08;100.00;93801.91;5129159;27;20051;-82
2021/10/30 05:31:16;;;;;;;48.25;24.75;;;;;;;0.01;100.00;93795.78;5129802;27;20055;-82
2021/10/30 05:33:43;;;;;;;28.92;13.30;;;;;;;-0.02;100.00;93802.69;5129347;27;20055;-82
2021/10/30 05:36:12;;;;;;;30.40;15.30;;;;;;;0.00;100.00;93810.16;5129345;27;20051;-83
2021/10/30 05:38:44;;;;;;;30.13;14.13;;;;;;;0.01;100.00;93809.22;5129029;27;20054;-82
2021/10/30 05:41:12;;;;;;;22.50;13.10;;;;;;;0.04;100.00;93801.38;5129299;27;20039;-82
2021/10/30 05:43:40;;;;;;;20.13;11.68;;;;;;;-0.11;100.00;93777.41;5129467;27;20058;-82
2021/10/30 05:46:07;;;;;;;20.73;11.43;;;;;;;0.14;100.00;93806.47;5129120;27;20134;-82
2021/10/30 05:48:35;;;;;;;17.90;9.93;;;;;;;0.28;100.00;93812.84;5129616;27;20051;-81
2021/10/30 05:51:02;;;;;;;16.15;9.10;;;;;;;0.30;100.00;93798.34;5129116;27;20051;-81
2021/10/30 05:53:29;;;;;;;15.15;9.95;;;;;;;0.13;100.00;93764.41;5129189;27;20407;-81
2021/10/30 05:55:57;;;;;;;19.50;10.25;;;;;;;0.44;100.00;93812.31;5128934;27;20054;-81
2021/10/30 05:58:24;;;;;;;65.50;30.50;;;;;;;0.41;100.00;93792.34;5129018;27;20051;-82
2021/10/30 06:00:51;;;;;;;101.40;45.10;;;;;;;0.46;100.00;93802.88;5129295;27;20047;-82
2021/10/30 06:03:18;;;;;;;106.32;48.88;;;;;;;0.69;100.00;93815.25;5128842;27;20039;-82
2021/10/30 06:05:44;;;;;;;142.27;61.97;;;;;;;0.76;100.00;93813.78;5128290;27;20080;-83
2021/10/30 06:08:11;;;;;;;159.98;70.97;;;;;;;0.44;100.00;93746.63;5128842;27;20043;-86
2021/10/30 06:10:38;;;;;;;182.60;82.05;;;;;;;0.24;100.00;93712.97;5129904;27;20479;-85
2021/10/30 06:13:06;;;;;;;219.80;93.15;;;;;;;0.92;100.00;93793.00;5128554;27;20047;-87
2021/10/30 06:15:33;;;;;;;169.30;76.88;;;;;;;0.57;100.00;93755.66;5127641;27;20039;-87
2021/10/30 06:18:00;;;;;;;131.32;60.47;;;;;;;1.04;100.00;93810.56;5124054;27;20841;-87
2021/10/30 06:20:27;;;;;;;117.10;54.28;;;;;;;1.05;100.00;93807.09;5124332;27;20045;-87
2021/10/30 06:22:54;;;;;;;96.00;46.83;;;;;;;1.29;100.00;93819.28;5123928;27;20778;-87
2021/10/30 06:25:21;;;;;;;86.15;44.42;;;;;;;1.37;100.00;93817.78;5124319;27;20077;-87
2021/10/30 06:27:48;;;;;;;66.50;36.88;;;;;;;1.38;100.00;93822.72;5123950;27;20047;-87
2021/10/30 06:30:17;;;;;;;71.72;37.88;;;;;;;1.31;100.00;93799.69;5123875;27;20177;-87
2021/10/30 06:32:43;;;;;;;65.53;34.63;;;;;;;0.77;100.00;93703.31;5123506;27;20085;-87
2021/10/30 06:35:10;;;;;;;62.55;36.65;;;;;;;1.69;100.00;93814.09;5124144;27;20059;-83
2021/10/30 06:37:39;;;;;;;65.30;35.38;;;;;;;1.58;100.00;93772.03;5123515;27;20496;-84
2021/10/30 06:40:08;;;;;;;61.72;35.08;;;;;;;1.69;100.00;93789.56;5119051;27;20047;-87
2021/10/30 06:42:35;;;;;;;58.00;35.47;;;;;;;2.07;100.00;93797.09;5128248;27;20100;-84
2021/10/30 06:45:02;;;;;;;60.33;33.17;;;;;;;2.02;100.00;93768.84;5130038;27;20092;-85
2021/10/30 06:47:31;;;;;;;72.78;44.00;;;;;;;1.87;100.00;93774.41;5123364;27;20756;-85
2021/10/30 06:49:59;;;;;;;75.97;44.05;;;;;;;1.93;100.00;93765.44;5121307;27;20078;-87
2021/10/30 06:55:11;;;;;;;47.22;31.60;;;;;;;2.31;100.00;93821.09;5122129;27;20095;-84
2021/10/30 06:57:38;;;;;;;35.90;23.55;;;;;;;2.14;100.00;93797.34;5121608;27;20050;-84
2021/10/30 07:00:08;;;;;;;34.25;20.90;;;;;;;2.26;100.00;93810.59;5122858;27;20082;-83
2021/10/30 07:02:47;;;;;;;31.52;19.15;;;;;;;2.46;100.00;93813.78;5123102;27;20058;-83
2021/10/30 07:05:14;;;;;;;29.23;18.85;;;;;;;2.42;100.00;93806.63;5123570;27;20047;-84
2021/10/30 07:07:40;;;;;;;29.90;18.67;;;;;;;2.55;100.00;93817.22;5123604;27;20404;-84
2021/10/30 07:10:08;;;;;;;31.00;19.75;;;;;;;2.66;100.00;93800.97;5123482;27;20055;-84
2021/10/30 07:12:37;;;;;;;31.20;20.20;;;;;;;2.84;100.00;93800.16;5123594;27;20058;-85
2021/10/30 07:15:05;;;;;;;26.30;18.42;;;;;;;2.94;100.00;93799.13;5123564;27;20648;-84
2021/10/30 07:17:32;;;;;;;26.15;17.80;;;;;;;2.85;100.00;93782.25;5121856;27;20506;-86
2021/10/30 07:20:00;;;;;;;32.10;19.58;;;;;;;3.25;100.00;93810.59;5123841;27;20078;-85
2021/10/30 07:22:27;;;;;;;29.10;18.35;;;;;;;3.40;100.00;93792.25;5123489;27;20051;-86
2021/10/30 07:24:54;;;;;;;35.78;20.25;;;;;;;3.48;100.00;93775.31;5122908;27;20047;-87
2021/10/30 07:27:21;;;;;;;30.70;19.52;;;;;;;3.69;100.00;93781.75;5123130;27;20506;-87
2021/10/30 07:29:49;;;;;;;32.58;21.98;;;;;;;3.77;100.00;93765.75;5123150;27;20043;-86
2021/10/30 07:32:21;;;;;;;33.10;20.58;;;;;;;3.94;100.00;93761.50;5123131;27;20551;-85
2021/10/30 07:34:47;;;;;;;32.15;20.85;;;;;;;4.35;100.00;93791.31;5122471;27;20045;-85
2021/10/30 07:37:18;;;;;;;32.78;19.02;;;;;;;4.35;100.00;93785.44;5122636;27;20059;-85
2021/10/30 07:39:45;;;;;;;31.38;18.58;;;;;;;4.56;100.00;93784.97;5122694;27;20054;-86
2021/10/30 07:42:12;;;;;;;28.40;16.00;;;;;;;4.72;100.00;93763.03;5123357;27;20373;-85
2021/10/30 07:44:40;;;;;;;29.58;16.98;;;;;;;5.05;100.00;93778.28;5122484;27;20141;-85
2021/10/30 07:47:08;;;;;;;25.10;15.60;;;;;;;5.04;100.00;93756.31;5122576;27;20050;-86
2021/10/30 07:49:36;;;;;;;21.98;14.57;;;;;;;5.02;100.00;93746.31;5122798;27;20134;-86
2021/10/30 07:52:04;;;;;;;23.40;14.55;;;;;;;5.28;100.00;93763.09;5122578;27;20057;-85
2021/10/30 07:54:47;;;;;;;31.95;17.52;;;;;;;5.06;100.00;93688.97;5122231;27;20043;-85
2021/10/30 07:57:14;;;;;;;40.25;24.52;;;;;;;5.95;100.00;93775.63;5122391;27;20718;-85
2021/10/30 07:59:41;;;;;;;19.77;12.95;;;;;;;6.15;100.00;93773.47;5122412;27;20458;-85
2021/10/30 08:02:09;;;;;;;46.55;27.52;;;;;;;6.45;98.91;93777.94;5122729;27;20588;-85
2021/10/30 08:04:37;;;;;;;22.50;14.88;;;;;;;6.67;97.70;93784.00;5122510;27;20054;-84
2021/10/30 08:07:05;;;;;;;34.45;15.93;;;;;;;6.75;96.72;93755.84;5121915;27;20514;-84
2021/10/30 08:09:32;;;;;;;27.65;14.85;;;;;;;7.16;95.38;93777.69;5122252;27;20063;-84
2021/10/30 08:12:01;;;;;;;22.65;13.35;;;;;;;7.22;94.12;93761.66;5121938;27;20039;-85
2021/10/30 08:14:30;;;;;;;23.35;13.90;;;;;;;7.39;93.26;93756.38;5122001;27;21275;-84
2021/10/30 08:16:59;;;;;;;17.98;12.93;;;;;;;7.53;91.87;93749.69;5122628;27;20567;-84
2021/10/30 08:19:26;;;;;;;25.50;15.85;;;;;;;7.82;91.37;93760.84;5121866;27;20047;-84
2021/10/30 08:21:52;;;;;;;24.83;14.38;;;;;;;7.94;90.73;93750.97;5122826;27;20063;-84
2021/10/30 08:24:19;;;;;;;19.42;13.25;;;;;;;8.24;91.15;93766.22;5122669;27;20567;-84
2021/10/30 08:26:46;;;;;;;24.65;15.85;;;;;;;8.34;89.11;93752.34;5122411;27;20043;-84
2021/10/30 08:29:14;;;;;;;22.27;13.85;;;;;;;8.60;88.66;93764.63;5122324;27;20047;-84
2021/10/30 08:31:41;;;;;;;27.20;18.75;;;;;;;8.60;86.43;93723.66;5122993;27;20057;-84
2021/10/30 08:34:08;;;;;;;22.38;14.93;;;;;;;8.92;84.28;93754.88;5122378;27;20062;-85
2021/10/30 08:36:35;;;;;;;24.67;16.35;;;;;;;9.13;84.60;93755.00;5122642;27;20059;-84
2021/10/30 08:39:03;;;;;;;19.33;13.10;;;;;;;9.32;84.74;93762.06;5122350;27;20050;-85
2021/10/30 08:41:30;;;;;;;23.45;14.60;;;;;;;9.49;80.62;93754.03;5122120;27;20050;-85
2021/10/30 08:43:57;;;;;;;20.55;13.18;;;;;;;9.41;80.53;93721.66;5122111;28;20134;-86
2021/10/30 08:46:26;;;;;;;26.67;15.82;;;;;;;9.69;81.67;93725.13;5118469;28;20043;-84
2021/10/30 08:48:54;;;;;;;18.52;13.75;;;;;;;9.98;81.06;93746.34;5120448;28;20043;-85
2021/10/30 08:51:21;;;;;;;18.63;12.60;;;;;;;9.95;78.67;93718.53;5121179;28;20690;-85
2021/10/30 08:53:48;;;;;;;18.02;11.95;;;;;;;9.81;76.67;93727.97;5122306;28;20078;-85
2021/10/30 08:56:15;;;;;;;20.08;13.13;;;;;;;9.99;78.56;93735.91;5122273;28;20053;-84
2021/10/30 08:58:42;;;;;;;23.33;14.18;;;;;;;9.81;79.20;93740.78;5121835;28;20047;-86
2021/10/30 09:01:11;;;;;;;19.75;12.15;;;;;;;9.71;78.97;93680.34;5121628;28;20044;-85
2021/10/30 09:03:40;;;;;;;17.13;11.00;;;;;;;10.16;75.56;93709.88;5120800;28;20515;-85
2021/10/30 09:06:07;;;;;;;18.50;12.00;;;;;;;10.23;76.86;93708.13;5121112;28;21121;-84
2021/10/30 09:08:34;;;;;;;16.90;10.80;;;;;;;10.63;76.67;93733.09;5121091;28;20050;-84
2021/10/30 09:11:07;;;;;;;18.05;11.43;;;;;;;10.76;76.25;93726.38;5121102;28;20040;-85
2021/10/30 09:13:34;;;;;;;17.65;11.65;;;;;;;10.50;76.53;93663.72;5120834;28;20138;-85
2021/10/30 09:16:02;;;;;;;18.52;12.75;;;;;;;10.73;72.37;93714.72;5120758;28;20040;-85
2021/10/30 09:18:31;;;;;;;17.38;10.95;;;;;;;10.94;73.45;93713.72;5120888;28;20039;-86
2021/10/30 09:21:14;;;;;;;19.48;11.35;;;;;;;11.05;75.57;93693.53;5121470;27;20058;-86
2021/10/30 09:23:44;;;;;;;15.55;10.65;;;;;;;11.26;74.71;93699.44;5120879;28;20748;-86
2021/10/30 09:26:18;;;;;;;15.27;10.35;;;;;;;11.45;73.47;93713.25;5120883;28;20446;-86
2021/10/30 09:28:49;;;;;;;18.00;11.00;;;;;;;11.57;73.78;93696.19;5120734;28;20051;-85
2021/10/30 09:31:19;;;;;;;15.20;9.38;;;;;;;11.82;71.80;93720.44;5121335;28;20096;-85
2021/10/30 09:33:54;;;;;;;16.05;10.52;;;;;;;11.82;69.64;93705.81;5120468;28;20043;-86
2021/10/30 09:36:28;;;;;;;14.57;8.95;;;;;;;11.76;70.37;93671.38;5121119;28;20412;-85
2021/10/30 09:38:57;;;;;;;13.95;9.23;;;;;;;12.10;68.64;93709.84;5120656;28;20334;-85
2021/10/30 09:41:26;;;;;;;11.43;8.40;;;;;;;11.94;65.15;93693.06;5123254;27;20051;-85
2021/10/30 09:43:56;;;;;;;12.15;8.50;;;;;;;11.99;70.52;93669.28;5124081;27;20062;-86
2021/10/30 09:46:24;;;;;;;14.15;7.82;;;;;;;12.26;69.33;93669.94;5124554;27;20055;-86
2021/10/30 09:48:52;;;;;;;15.07;8.32;;;;;;;12.54;66.76;93688.56;5124521;27;20055;-86
2021/10/30 09:51:35;;;;;;;13.25;8.95;;;;;;;12.56;63.92;93671.88;5124348;27;20499;-84
2021/10/30 09:54:05;;;;;;;19.35;11.27;;;;;;;12.61;63.52;93680.78;5124309;27;20055;-84
2021/10/30 09:56:50;;;;;;;11.05;7.70;;;;;;;12.80;61.56;93676.47;5124434;27;20050;-85
2021/10/30 09:59:17;;;;;;;13.20;9.03;;;;;;;12.93;64.55;93663.47;5124282;27;20054;-85
2021/10/30 10:01:48;;;;;;;13.43;8.40;;;;;;;13.09;65.42;93662.13;5123388;27;20061;-85
2021/10/30 10:04:16;;;;;;;12.32;8.38;;;;;;;13.07;62.62;93629.81;5124104;27;20062;-85
2021/10/30 10:06:46;;;;;;;17.95;13.05;;;;;;;13.23;64.62;93616.34;5123765;27;20047;-85
2021/10/30 10:09:14;;;;;;;13.73;10.02;;;;;;;13.60;62.92;93635.41;5124053;27;20055;-85
2021/10/30 10:11:43;;;;;;;16.95;9.32;;;;;;;13.66;60.96;93644.06;5123759;27;20475;-84
2021/10/30 10:14:15;;;;;;;16.48;8.93;;;;;;;13.89;63.28;93645.97;5123778;27;20051;-84
2021/10/30 10:16:44;;;;;;;14.13;8.55;;;;;;;13.80;60.68;93611.13;5123625;27;20051;-85
2021/10/30 10:19:11;;;;;;;14.43;8.48;;;;;;;13.55;57.55;93632.69;5123762;27;20051;-84
2021/10/30 10:21:39;;;;;;;13.30;9.35;;;;;;;13.38;60.88;93594.53;5123841;27;20141;-84
2021/10/30 10:24:13;;;;;;;15.18;8.13;;;;;;;13.81;59.80;93647.06;5124163;27;20049;-84
2021/10/30 10:26:51;;;;;;;13.35;8.27;;;;;;;13.85;62.57;93643.03;5123959;27;20057;-85
2021/10/30 10:29:32;;;;;;;13.40;8.57;;;;;;;13.65;58.34;93596.81;5124242;27;20494;-84
2021/10/30 10:32:01;;;;;;;17.23;8.35;;;;;;;12.89;55.99;93519.72;5123982;27;20047;-84
2021/10/30 10:34:32;;;;;;;13.85;9.00;;;;;;;13.80;61.31;93626.63;5124367;27;20055;-84
2021/10/30 10:37:23;;;;;;;10.43;7.25;;;;;;;13.92;59.60;93624.09;5125113;27;20081;-83
2021/10/30 10:39:54;;;;;;;14.40;6.93;;;;;;;14.09;57.81;93627.63;5123518;27;20054;-84
2021/10/30 10:42:43;;;;;;;10.90;7.35;;;;;;;14.17;54.43;93618.78;5123690;27;20051;-84
2021/10/30 10:45:14;;;;;;;10.93;7.40;;;;;;;13.66;55.35;93621.63;5123559;27;20047;-83
2021/10/30 10:47:58;;;;;;;15.68;6.97;;;;;;;13.90;54.79;93617.31;5123291;27;20107;-84
2021/10/30 10:50:29;;;;;;;12.48;7.07;;;;;;;14.03;56.46;93613.78;5119825;27;20602;-85
2021/10/30 10:53:34;;;;;;;14.65;7.90;;;;;;;14.09;56.65;93599.22;5122122;27;20456;-83
2021/10/30 10:56:13;;;;;;;12.52;7.50;;;;;;;14.28;57.31;93605.09;5123298;27;20129;-84
2021/10/30 10:59:17;;;;;;;9.57;6.20;;;;;;;14.36;57.37;93593.63;5123088;27;20077;-85
2021/10/30 11:02:19;;;;;;;14.25;7.22;;;;;;;14.64;57.14;93602.53;5122772;27;20839;-84
2021/10/30 11:05:26;;;;;;;14.15;7.32;;;;;;;14.83;56.68;93600.63;5122723;27;20082;-84
2021/10/30 11:08:24;;;;;;;15.85;7.43;;;;;;;14.94;56.54;93587.91;5122583;27;20046;-85
2021/10/30 11:11:10;;;;;;;18.40;10.60;;;;;;;15.16;56.73;93582.13;5122479;27;20043;-85
2021/10/30 11:13:37;;;;;;;26.42;13.77;;;;;;;14.73;56.14;93514.25;5122741;27;20057;-85
2021/10/30 11:16:04;;;;;;;13.77;8.25;;;;;;;14.37;55.41;93561.59;5122568;27;20055;-84
2021/10/30 11:18:35;;;;;;;18.48;9.18;;;;;;;14.63;57.62;93558.78;5122719;27;20080;-85
2021/10/30 11:21:22;;;;;;;13.30;8.48;;;;;;;14.92;56.46;93577.81;5122726;27;20189;-84
2021/10/30 11:23:50;;;;;;;16.00;7.50;;;;;;;15.02;55.73;93566.06;5122505;27;20050;-84
2021/10/30 11:26:23;;;;;;;11.52;7.78;;;;;;;14.95;55.33;93564.41;5122045;27;20039;-86
2021/10/30 11:28:51;;;;;;;16.70;7.47;;;;;;;15.10;56.26;93563.16;5122480;27;20070;-86
2021/10/30 11:31:20;;;;;;;15.45;8.35;;;;;;;14.62;55.98;93475.28;5122888;27;20085;-85
2021/10/30 11:33:57;;;;;;;23.73;9.18;;;;;;;15.39;55.47;93562.38;5122267;27;20054;-85
2021/10/30 11:36:25;;;;;;;12.23;7.47;;;;;;;15.28;55.12;93544.06;5123136;27;20535;-84